createdAt,value
2022-12-11T00:03:15.824Z,12.05
2022-12-11T00:06:09.149Z,12.43
2022-12-11T00:08:54.415Z,13.70
2022-12-11T00:14:23.625Z,11.30
2022-12-11T00:17:08.230Z,14.02
2022-12-11T00:19:53.137Z,12.23
2022-12-11T00:22:37.837Z,13.80
2022-12-11T00:25:22.909Z,14.15
2022-12-11T00:28:08.139Z,14.13
2022-12-11T00:30:52.699Z,14.73
2022-12-11T00:33:37.765Z,13.95
2022-12-11T00:36:25.807Z,15.95
2022-12-11T00:39:10.519Z,15.77
2022-12-11T00:41:55.777Z,16.33
2022-12-11T00:47:25.842Z,16.80
2022-12-11T00:52:56.285Z,19.02
2022-12-11T00:55:42.058Z,19.33
2022-12-11T00:58:27.050Z,17.98
2022-12-11T01:01:16.014Z,18.95
2022-12-11T01:04:00.578Z,21.00
2022-12-11T01:09:48.647Z,16.52
2022-12-11T01:12:33.406Z,18.42
2022-12-11T01:18:04.487Z,22.25
2022-12-11T01:20:49.291Z,22.13
2022-12-11T01:23:34.567Z,26.10
2022-12-11T01:29:04.360Z,19.27
2022-12-11T01:31:49.066Z,20.60
2022-12-11T01:34:34.219Z,18.90
2022-12-11T01:37:20.605Z,25.13
2022-12-11T01:40:07.041Z,26.85
2022-12-11T01:42:51.689Z,24.63
2022-12-11T01:45:44.037Z,25.88
2022-12-11T01:48:31.977Z,26.25
2022-12-11T01:51:17.115Z,24.63
2022-12-11T01:56:52.522Z,28.05
2022-12-11T01:59:40.481Z,22.08
2022-12-11T02:02:30.995Z,26.67
2022-12-11T02:05:16.075Z,22.55
2022-12-11T02:08:03.029Z,31.15
2022-12-11T02:11:11.652Z,26.17
2022-12-11T02:14:04.900Z,27.83
2022-12-11T02:16:53.253Z,25.02
2022-12-11T02:20:06.102Z,25.73
2022-12-11T02:23:12.627Z,25.35
2022-12-11T02:26:17.666Z,23.65
2022-12-11T02:29:08.086Z,29.17
2022-12-11T02:32:25.558Z,29.80
2022-12-11T02:35:25.394Z,29.05
2022-12-11T02:38:18.696Z,30.08
2022-12-11T02:41:06.797Z,26.35
2022-12-11T02:43:55.416Z,28.15
2022-12-11T02:46:41.283Z,28.52
2022-12-11T02:49:27.860Z,32.90
2022-12-11T02:52:16.897Z,30.98
2022-12-11T02:55:03.699Z,26.80
2022-12-11T02:58:03.202Z,32.22
2022-12-11T03:00:50.948Z,27.40
2022-12-11T03:03:36.301Z,25.38
2022-12-11T03:09:08.612Z,24.70
2022-12-11T03:11:53.161Z,22.92
2022-12-11T03:17:32.023Z,23.55
2022-12-11T03:20:22.689Z,29.98
2022-12-11T03:23:30.459Z,26.63
2022-12-11T03:26:18.181Z,26.17
2022-12-11T03:29:11.318Z,29.25
2022-12-11T03:32:08.495Z,25.42
2022-12-11T03:34:58.051Z,24.75
2022-12-11T03:37:45.628Z,26.63
2022-12-11T03:40:33.469Z,32.63
2022-12-11T03:43:20.757Z,28.08
2022-12-11T03:46:08.891Z,26.55
2022-12-11T03:48:58.597Z,30.23
2022-12-11T03:51:46.043Z,31.05
2022-12-11T03:54:32.639Z,29.25
2022-12-11T03:57:21.937Z,25.98
2022-12-11T04:00:10.487Z,25.83
2022-12-11T04:03:14.578Z,24.45
2022-12-11T04:05:59.669Z,26.77
2022-12-11T04:08:44.887Z,29.73
2022-12-11T04:11:35.870Z,24.75
2022-12-11T04:14:39.146Z,25.13
2022-12-11T04:17:42.705Z,24.77
2022-12-11T04:20:56.806Z,27.02
2022-12-11T04:24:00.163Z,32.63
2022-12-11T04:26:46.797Z,24.10
2022-12-11T04:29:31.777Z,28.42
2022-12-11T04:32:16.402Z,24.45
2022-12-11T04:37:46.094Z,25.92
2022-12-11T04:40:30.997Z,27.88
2022-12-11T04:43:15.751Z,27.27
2022-12-11T04:46:10.544Z,26.25
2022-12-11T04:48:57.730Z,25.70
2022-12-11T04:51:43.104Z,26.10
2022-12-11T04:54:31.585Z,21.38
2022-12-11T04:57:16.378Z,27.77
2022-12-11T05:00:04.206Z,26.17
2022-12-11T05:02:49.134Z,24.02
2022-12-11T05:05:34.331Z,24.88
2022-12-11T05:08:20.293Z,24.25
2022-12-11T05:11:07.611Z,20.00
2022-12-11T05:13:52.351Z,23.08
2022-12-11T05:16:37.431Z,24.67
2022-12-11T05:19:22.369Z,22.42
2022-12-11T05:22:07.638Z,26.05
2022-12-11T05:24:52.514Z,21.75
2022-12-11T05:27:37.101Z,26.90
2022-12-11T05:30:21.620Z,23.52
2022-12-11T05:33:06.661Z,19.73
2022-12-11T05:35:51.316Z,24.73
2022-12-11T05:38:36.272Z,25.27
2022-12-11T05:44:07.378Z,24.85
2022-12-11T05:46:52.468Z,22.17
2022-12-11T05:49:37.482Z,22.85
2022-12-11T05:52:22.830Z,25.35
2022-12-11T05:55:08.979Z,26.13
2022-12-11T05:57:54.195Z,21.67
2022-12-11T06:00:41.855Z,26.15
2022-12-11T06:03:26.911Z,21.88
2022-12-11T06:06:12.471Z,22.45
2022-12-11T06:08:58.771Z,23.42
2022-12-11T06:11:43.432Z,21.05
2022-12-11T06:14:28.458Z,23.55
2022-12-11T06:17:13.405Z,20.40
2022-12-11T06:19:58.325Z,24.25
2022-12-11T06:22:42.908Z,24.50
2022-12-11T06:25:29.009Z,29.40
2022-12-11T06:28:14.024Z,26.35
2022-12-11T06:30:59.980Z,26.05
2022-12-11T06:33:45.709Z,26.08
2022-12-11T06:36:30.568Z,30.02
2022-12-11T06:41:59.891Z,24.10
2022-12-11T06:47:29.933Z,23.88
2022-12-11T06:50:15.029Z,25.52
2022-12-11T06:52:59.890Z,22.75
2022-12-11T06:55:44.448Z,25.15
2022-12-11T06:58:29.522Z,28.50
2022-12-11T07:01:17.760Z,25.27
2022-12-11T07:04:02.517Z,30.42
2022-12-11T07:06:48.563Z,30.27
2022-12-11T07:09:33.681Z,31.40
2022-12-11T07:12:18.549Z,30.45
2022-12-11T07:15:05.042Z,26.55
2022-12-11T07:17:50.040Z,27.40
2022-12-11T07:20:35.189Z,27.40
2022-12-11T07:23:20.741Z,28.00
2022-12-11T07:26:08.386Z,33.72
2022-12-11T07:28:57.101Z,35.25
2022-12-11T07:31:41.648Z,31.98
2022-12-11T07:34:26.645Z,35.90
2022-12-11T07:39:55.959Z,35.78
2022-12-11T07:42:45.787Z,30.98
2022-12-11T07:45:31.162Z,33.33
2022-12-11T07:48:16.036Z,30.67
2022-12-11T07:51:15.100Z,30.58
2022-12-11T07:54:07.250Z,37.30
2022-12-11T07:56:53.997Z,31.00
2022-12-11T07:59:39.121Z,39.08
2022-12-11T08:02:24.080Z,32.63
2022-12-11T08:05:09.324Z,32.97
2022-12-11T08:07:55.074Z,39.78
2022-12-11T08:10:39.943Z,32.10
2022-12-11T08:13:24.858Z,34.95
2022-12-11T08:16:12.638Z,45.20
2022-12-11T08:18:57.797Z,42.50
2022-12-11T08:24:27.404Z,31.92
2022-12-11T08:27:12.433Z,31.45
2022-12-11T08:29:57.600Z,31.10
2022-12-11T08:32:42.564Z,28.70
2022-12-11T08:35:27.775Z,29.27
2022-12-11T08:38:12.492Z,32.47
2022-12-11T08:40:57.106Z,30.15
2022-12-11T08:43:42.775Z,31.60
2022-12-11T08:46:31.746Z,29.50
2022-12-11T08:49:16.925Z,34.53
2022-12-11T08:52:05.194Z,33.92
2022-12-11T08:54:49.771Z,29.48
2022-12-11T08:57:34.283Z,30.35
2022-12-11T09:00:19.497Z,28.35
2022-12-11T09:03:08.492Z,29.63
2022-12-11T09:05:57.402Z,27.70
2022-12-11T09:08:48.719Z,28.95
2022-12-11T09:11:37.377Z,21.48
2022-12-11T09:14:22.478Z,25.05
2022-12-11T09:17:08.157Z,27.63
2022-12-11T09:19:53.007Z,26.30
2022-12-11T09:22:38.023Z,24.58
2022-12-11T09:25:22.576Z,29.23
2022-12-11T09:28:07.455Z,30.58
2022-12-11T09:30:52.447Z,25.23
2022-12-11T09:33:37.771Z,21.38
2022-12-11T09:36:23.546Z,21.88
2022-12-11T09:39:11.535Z,22.33
2022-12-11T09:42:38.641Z,20.98
2022-12-11T09:45:23.308Z,20.30
2022-12-11T09:48:10.597Z,19.38
2022-12-11T09:50:56.635Z,20.30
2022-12-11T09:53:41.275Z,20.20
2022-12-11T09:56:41.882Z,21.05
2022-12-11T09:59:35.424Z,20.55
2022-12-11T10:02:35.269Z,23.10
2022-12-11T10:05:30.560Z,22.05
2022-12-11T10:08:38.372Z,22.88
2022-12-11T10:11:44.978Z,22.42
2022-12-11T10:14:32.255Z,24.05
2022-12-11T10:17:20.757Z,20.95
2022-12-11T10:20:28.621Z,25.05
2022-12-11T10:23:19.616Z,22.33
2022-12-11T10:26:15.416Z,29.83
2022-12-11T10:29:00.521Z,25.20
2022-12-11T10:31:57.274Z,23.13
2022-12-11T10:34:46.964Z,22.77
2022-12-11T10:37:31.614Z,23.63
2022-12-11T10:40:19.508Z,20.98
2022-12-11T10:43:04.184Z,23.90
2022-12-11T10:45:53.913Z,21.27
2022-12-11T10:48:50.117Z,23.88
2022-12-11T10:51:37.056Z,19.65
2022-12-11T10:54:43.579Z,22.40
2022-12-11T10:57:34.165Z,26.25
2022-12-11T11:00:28.073Z,30.50
2022-12-11T11:03:27.535Z,29.85
2022-12-11T11:06:15.090Z,30.38
2022-12-11T11:09:01.237Z,35.33
2022-12-11T11:11:49.793Z,30.02
2022-12-11T11:14:34.898Z,35.33
2022-12-11T11:17:19.396Z,26.05
2022-12-11T11:20:14.363Z,32.03
2022-12-11T11:23:02.490Z,30.83
2022-12-11T11:25:57.302Z,40.08
2022-12-11T11:28:56.203Z,55.92
2022-12-11T11:31:41.772Z,55.35
2022-12-11T11:34:30.181Z,53.25
2022-12-11T11:37:24.591Z,43.20
2022-12-11T11:40:32.751Z,42.50
2022-12-11T11:43:36.500Z,34.40
2022-12-11T11:46:27.318Z,26.55
2022-12-11T11:49:11.795Z,21.15
2022-12-11T11:52:21.059Z,21.35
2022-12-11T11:55:18.672Z,17.13
2022-12-11T11:58:14.437Z,15.52
2022-12-11T12:00:59.061Z,16.70
2022-12-11T12:03:46.187Z,16.55
2022-12-11T12:06:31.165Z,16.27
2022-12-11T12:09:25.050Z,16.40
2022-12-11T12:12:28.680Z,15.75
2022-12-11T12:15:24.638Z,16.05
2022-12-11T12:18:22.110Z,20.80
2022-12-11T12:21:31.818Z,24.50
2022-12-11T12:24:43.404Z,25.15
2022-12-11T12:27:54.625Z,32.20
2022-12-11T12:30:48.005Z,29.85
2022-12-11T12:33:51.793Z,29.00
2022-12-11T12:39:33.736Z,27.83
2022-12-11T12:42:44.356Z,24.85
2022-12-11T12:45:37.331Z,22.42
2022-12-11T12:48:24.293Z,23.88
2022-12-11T12:51:13.474Z,37.47
2022-12-11T12:54:05.569Z,30.52
2022-12-11T12:56:57.146Z,29.23
2022-12-11T12:59:42.049Z,22.65
2022-12-11T13:02:27.069Z,19.33
2022-12-11T13:05:32.173Z,28.67
2022-12-11T13:08:24.320Z,27.48
2022-12-11T13:11:11.551Z,33.80
2022-12-11T13:14:06.920Z,27.58
2022-12-11T13:17:03.597Z,25.98
2022-12-11T13:19:50.103Z,26.13
2022-12-11T13:22:34.991Z,29.33
2022-12-11T13:25:30.413Z,30.77
2022-12-11T13:28:29.215Z,41.67
2022-12-11T13:31:14.038Z,39.13
2022-12-11T13:34:26.424Z,45.30
2022-12-11T13:37:29.164Z,41.20
2022-12-11T13:40:41.493Z,38.78
2022-12-11T13:43:30.057Z,44.80
2022-12-11T13:46:20.375Z,47.30
2022-12-11T13:49:07.518Z,47.20
2022-12-11T13:51:55.082Z,47.67
2022-12-11T13:54:47.976Z,48.95
2022-12-11T13:57:32.709Z,45.22
2022-12-11T14:00:23.669Z,46.05
2022-12-11T14:03:10.419Z,47.28
2022-12-11T14:05:55.158Z,59.00
2022-12-11T14:08:43.635Z,67.85
2022-12-11T14:11:33.808Z,69.90
2022-12-11T14:14:28.664Z,68.05
2022-12-11T14:17:14.986Z,62.58
2022-12-11T14:20:06.483Z,63.20
2022-12-11T14:22:51.400Z,58.50
2022-12-11T14:25:36.398Z,54.72
2022-12-11T14:28:22.734Z,58.63
2022-12-11T14:31:07.731Z,89.70
2022-12-11T14:34:02.452Z,112.38
2022-12-11T14:36:48.849Z,122.22
2022-12-11T14:39:40.306Z,132.25
2022-12-11T14:42:41.994Z,133.10
2022-12-11T14:45:44.172Z,142.18
2022-12-11T14:48:38.465Z,132.43
2022-12-11T14:51:24.588Z,122.05
2022-12-11T14:54:20.493Z,137.32
2022-12-11T14:57:07.686Z,115.03
2022-12-11T14:59:54.703Z,106.95
2022-12-11T15:02:39.870Z,86.97
2022-12-11T15:05:25.697Z,62.38
2022-12-11T15:08:10.377Z,51.75
2022-12-11T15:11:11.947Z,48.33
2022-12-11T15:13:58.690Z,39.88
2022-12-11T15:16:43.684Z,38.92
2022-12-11T15:19:28.173Z,41.95
2022-12-11T15:22:15.725Z,41.10
2022-12-11T15:25:01.135Z,32.92
2022-12-11T15:27:50.914Z,35.85
2022-12-11T15:30:35.633Z,33.70
2022-12-11T15:33:21.520Z,37.90
2022-12-11T15:36:21.019Z,28.50
2022-12-11T15:39:08.021Z,25.08
2022-12-11T15:41:52.941Z,18.77
2022-12-11T15:47:25.051Z,18.15
2022-12-11T15:50:27.605Z,17.77
2022-12-11T15:53:12.200Z,17.15
2022-12-11T15:55:58.126Z,14.88
2022-12-11T15:58:44.955Z,16.08
2022-12-11T16:01:29.969Z,14.57
2022-12-11T16:04:14.755Z,14.27
2022-12-11T16:06:59.228Z,13.32
2022-12-11T16:09:45.518Z,12.25
2022-12-11T16:12:30.471Z,13.85
2022-12-11T16:15:21.649Z,10.50
2022-12-11T16:18:11.801Z,10.50
2022-12-11T16:20:56.723Z,10.45
2022-12-11T16:23:41.397Z,11.30
2022-12-11T16:26:26.565Z,9.82
2022-12-11T16:29:11.447Z,9.68
2022-12-11T16:31:56.498Z,8.25
2022-12-11T16:34:41.519Z,8.50
2022-12-11T16:37:26.709Z,8.35
2022-12-11T16:40:11.840Z,10.68
2022-12-11T16:42:57.004Z,8.80
2022-12-11T16:45:42.632Z,8.45
2022-12-11T16:48:27.766Z,9.60
2022-12-11T16:51:14.261Z,10.95
2022-12-11T16:53:58.916Z,12.07
2022-12-11T16:56:44.552Z,11.07
2022-12-11T16:59:36.578Z,11.02
2022-12-11T17:02:22.479Z,12.70
2022-12-11T17:05:07.542Z,9.52
2022-12-11T17:07:52.251Z,6.97
2022-12-11T17:10:41.222Z,9.35
2022-12-11T17:13:25.637Z,6.28
2022-12-11T17:16:15.767Z,7.38
2022-12-11T17:19:02.394Z,6.47
2022-12-11T17:21:51.552Z,6.88
2022-12-11T17:24:36.441Z,6.57
2022-12-11T17:30:06.453Z,7.28
2022-12-11T17:32:51.415Z,9.15
2022-12-11T17:35:36.771Z,8.25
2022-12-11T17:38:21.463Z,10.68
2022-12-11T17:43:54.762Z,13.05
2022-12-11T17:46:39.510Z,10.25
2022-12-11T17:52:09.524Z,8.02
2022-12-11T17:54:53.969Z,7.80
2022-12-11T18:00:24.523Z,6.72
2022-12-11T18:03:11.000Z,7.10
2022-12-11T18:06:01.904Z,7.68
2022-12-11T18:08:46.521Z,7.80
2022-12-11T18:11:31.770Z,8.93
2022-12-11T18:14:17.615Z,5.85
2022-12-11T18:17:03.452Z,6.75
2022-12-11T18:19:48.008Z,4.70
2022-12-11T18:25:17.972Z,6.78
2022-12-11T18:28:03.087Z,5.63
2022-12-11T18:33:36.546Z,5.97
2022-12-11T18:36:21.920Z,5.97
2022-12-11T18:39:07.182Z,5.88
2022-12-11T18:44:56.457Z,5.13
2022-12-11T18:50:26.683Z,6.30
2022-12-11T18:53:11.450Z,6.85
2022-12-11T18:56:00.387Z,6.00
2022-12-11T18:58:46.558Z,6.70
2022-12-11T19:01:33.464Z,6.65
2022-12-11T19:04:18.003Z,8.27
2022-12-11T19:09:48.531Z,8.48
2022-12-11T19:12:33.841Z,8.57
2022-12-11T19:15:23.569Z,7.82
2022-12-11T19:18:09.269Z,11.68
2022-12-11T19:21:03.235Z,9.65
2022-12-11T19:26:36.456Z,9.68
2022-12-11T19:29:27.398Z,11.90
2022-12-11T19:32:12.049Z,13.77
2022-12-11T19:34:56.855Z,12.60
2022-12-11T19:37:42.542Z,12.65
2022-12-11T19:40:27.364Z,11.07
2022-12-11T19:45:59.208Z,9.80
2022-12-11T19:48:44.768Z,10.48
2022-12-11T19:51:37.843Z,11.80
2022-12-11T19:54:22.642Z,10.13
2022-12-11T19:57:08.278Z,11.25
2022-12-11T19:59:57.243Z,12.75
2022-12-11T20:02:42.302Z,10.48
2022-12-11T20:05:27.406Z,14.73
2022-12-11T20:08:43.081Z,14.80
2022-12-11T20:11:18.930Z,12.05
2022-12-11T20:14:03.881Z,9.27
2022-12-11T20:19:54.366Z,10.85
2022-12-11T20:22:38.785Z,11.57
2022-12-11T20:25:24.519Z,11.52
2022-12-11T20:28:09.384Z,12.10
2022-12-11T20:30:54.400Z,11.65
2022-12-11T20:36:24.980Z,12.02
2022-12-11T20:39:10.178Z,9.52
2022-12-11T20:41:54.860Z,10.20
2022-12-11T20:44:42.711Z,12.13
2022-12-11T20:47:30.419Z,9.80
2022-12-11T20:50:15.980Z,11.85
2022-12-11T20:53:00.856Z,13.52
2022-12-11T20:58:31.745Z,11.38
2022-12-11T21:01:18.768Z,10.70
2022-12-11T21:04:03.400Z,9.93
2022-12-11T21:06:54.726Z,12.10
2022-12-11T21:12:29.780Z,11.90
2022-12-11T21:15:16.022Z,14.48
2022-12-11T21:18:01.011Z,14.80
2022-12-11T21:20:46.137Z,13.63
2022-12-11T21:23:31.485Z,14.15
2022-12-11T21:29:01.803Z,16.42
2022-12-11T21:31:46.996Z,14.85
2022-12-11T21:37:16.415Z,13.63
2022-12-11T21:40:01.477Z,11.90
2022-12-11T21:42:46.339Z,14.05
2022-12-11T21:46:05.491Z,11.27
2022-12-11T21:48:42.069Z,12.30
2022-12-11T21:51:36.160Z,12.55
2022-12-11T21:54:22.457Z,11.88
2022-12-11T21:59:51.906Z,12.90
2022-12-11T22:02:40.856Z,10.90
2022-12-11T22:05:26.472Z,10.93
2022-12-11T22:08:10.992Z,12.80
2022-12-11T22:10:56.159Z,10.38
2022-12-11T22:13:40.912Z,11.43
2022-12-11T22:19:11.221Z,15.82
2022-12-11T22:21:55.809Z,12.57
2022-12-11T22:24:40.862Z,12.45
2022-12-11T22:30:13.756Z,11.90
2022-12-11T22:32:58.556Z,14.48
2022-12-11T22:38:27.635Z,14.05
2022-12-11T22:41:22.496Z,13.80
2022-12-11T22:44:14.814Z,17.48
2022-12-11T22:46:59.682Z,15.00
2022-12-11T22:49:44.893Z,16.65
2022-12-11T22:52:29.903Z,14.77
2022-12-11T22:55:15.078Z,18.55
2022-12-11T22:57:59.804Z,19.02
2022-12-11T23:00:44.452Z,17.60
2022-12-11T23:06:18.546Z,18.65
2022-12-11T23:09:03.924Z,17.83
2022-12-11T23:11:48.460Z,21.63
2022-12-11T23:14:33.541Z,19.90
2022-12-11T23:20:05.263Z,19.60
2022-12-11T23:22:50.420Z,18.27
2022-12-11T23:25:35.146Z,16.98
2022-12-11T23:28:20.069Z,18.42
2022-12-11T23:31:05.141Z,18.58
2022-12-11T23:36:35.133Z,14.18
2022-12-11T23:39:19.939Z,17.55
2022-12-11T23:42:05.418Z,21.85
2022-12-11T23:44:50.001Z,21.40
2022-12-11T23:47:35.087Z,22.13
2022-12-11T23:50:20.032Z,19.58
2022-12-11T23:55:49.892Z,22.75
2022-12-11T23:58:36.594Z,19.63
